To NAV CANADA Home Page Login to a new session Search on AWWS site Feedback and Comments Disclaimer Vers la page française équivalente Tips FAQ What's new on the site To the Forecasts and Observations / NOTAM section To "File a Flight Plan" website Publications and other links Update of the User's profile FIC Telephone Numbers My Weather Data Folder Route Weather Data Regional Weather Data Local Weather Data To the Forecasts and Observations / NOTAM section
Request Generated 02/11/2016 at 06:17:02 UTC . Weather information available at that time is displayed.

METAR/TAF

SUDBURY/ON    

METAR CYSB 110500Z 35011G19KT 4SM -SN DRSN FEW020 OVC100 M21/M25
A2984 RMK SC2AC6 SLP142=
METAR CYSB 110400Z 36012G19KT 3SM -SN DRSN SCT022 OVC063 M21/M24
A2983 RMK SC3SC5 SLP139=
METAR CYSB 110300Z 36014G20KT 3SM -SN DRSN OVC022 M20/M24 A2982 RMK
SC8 SLP135=

TAF CYSB 110138Z 1102/1114 35010G20KT P6SM -SN BKN030 TEMPO 1102/1108
4SM -SN OVC030 PROB30 1102/1106 21/2SM -SN OVC020
FM110800 34010G20KT P6SM BKN030 TEMPO 1108/1114 6SM -SHSN BKN020
RMK NXT FCST BY 110800Z=
Your time UTC time
Weather data provided by Environment Canada and NAV CANADA